Time;durP1;ratioP1;P1;durP2;ratioP2;P2;SDS_P1;SDS_P2;PMS_P1;PMS_P2;Temp;Humidity;BMP_temperature;BMP_pressure;BME280_temperature;BME280_humidity;BME280_pressure;Samples;Min_cycle;Max_cycle;Signal;HPM_P1;HPM_P2
2022/01/22 00:02:07;;;;;;;10.17;4.80;;;;;;;;;;4954493;28;20254;-63
2022/01/22 00:04:36;;;;;;;5.27;4.27;;;;;;;;;;4948972;28;20214;-62
2022/01/22 00:07:04;;;;;;;4.40;4.00;;;;;;;;;;4957984;28;20205;-63
2022/01/22 00:09:52;;;;;;;6.70;4.27;;;;;;;;;;4962719;28;20240;-63
2022/01/22 00:12:43;;;;;;;5.17;3.70;;;;;;;;;;4941469;28;20214;-63
2022/01/22 00:15:12;;;;;;;6.13;3.87;;;;;;;;;;4959616;28;20215;-63
2022/01/22 00:17:39;;;;;;;7.67;5.37;;;;;;;;;;4955212;28;20210;-62
2022/01/22 00:20:07;;;;;;;5.37;4.43;;;;;;;;;;4956118;28;20243;-62
2022/01/22 00:22:37;;;;;;;5.40;3.77;;;;;;;;;;4959895;28;20228;-62
2022/01/22 00:25:08;;;;;;;5.57;4.33;;;;;;;;;;4952099;28;20220;-64
2022/01/22 00:27:37;;;;;;;7.20;4.57;;;;;;;;;;4949824;28;23437;-62
2022/01/22 00:30:05;;;;;;;9.53;4.60;;;;;;;;;;4959367;28;20236;-62
2022/01/22 00:32:33;;;;;;;6.80;4.63;;;;;;;;;;4952761;28;20220;-63
2022/01/22 00:35:00;;;;;;;5.23;4.50;;;;;;;;;;4961327;28;20281;-64
2022/01/22 00:37:28;;;;;;;7.60;5.17;;;;;;;;;;4965904;28;20259;-63
2022/01/22 00:39:56;;;;;;;5.53;4.83;;;;;;;;;;4954355;28;20235;-63
2022/01/22 00:42:24;;;;;;;9.13;5.53;;;;;;;;;;4952478;28;20282;-63
2022/01/22 00:44:51;;;;;;;8.37;5.47;;;;;;;;;;4953590;28;20273;-61
2022/01/22 00:47:19;;;;;;;7.30;6.23;;;;;;;;;;4955691;28;20209;-62
2022/01/22 00:49:47;;;;;;;9.33;5.00;;;;;;;;;;4946297;28;20228;-63
2022/01/22 00:52:15;;;;;;;8.50;5.27;;;;;;;;;;4955489;28;20358;-62
2022/01/22 00:54:42;;;;;;;6.73;4.30;;;;;;;;;;4949025;28;20220;-64
2022/01/22 00:57:10;;;;;;;7.80;5.23;;;;;;;;;;4952035;28;20306;-61
2022/01/22 00:59:37;;;;;;;6.23;4.90;;;;;;;;;;4952652;28;20239;-62
2022/01/22 01:02:05;;;;;;;10.37;5.70;;;;;;;;;;4957959;28;20908;-63
2022/01/22 01:04:35;;;;;;;5.20;4.50;;;;;;;;;;4954963;28;20215;-63
2022/01/22 01:07:03;;;;;;;6.87;5.03;;;;;;;;;;4949769;28;20260;-62
2022/01/22 01:09:33;;;;;;;6.87;5.13;;;;;;;;;;4966921;28;20243;-62
2022/01/22 01:12:04;;;;;;;7.30;4.90;;;;;;;;;;4946167;28;20331;-63
2022/01/22 01:14:46;;;;;;;8.43;5.20;;;;;;;;;;4949296;28;20213;-63
2022/01/22 01:36:21;;;;;;;8.87;4.70;;;;;;;;;;4956238;28;20206;-62
2022/01/22 01:38:53;;;;;;;5.97;4.90;;;;;;;;;;4951409;28;20231;-61
2022/01/22 01:41:34;;;;;;;6.27;4.27;;;;;;;;;;4963301;28;20236;-62
2022/01/22 01:44:01;;;;;;;8.00;4.90;;;;;;;;;;4959170;28;20211;-62
2022/01/22 01:46:31;;;;;;;11.60;5.80;;;;;;;;;;4947092;28;20211;-62
2022/01/22 01:49:00;;;;;;;7.30;5.20;;;;;;;;;;4949812;28;20213;-62
2022/01/22 01:51:31;;;;;;;9.90;5.67;;;;;;;;;;4947302;28;20215;-64
2022/01/22 01:54:23;;;;;;;8.93;5.40;;;;;;;;;;4949801;28;20217;-62
2022/01/22 01:59:41;;;;;;;7.57;4.97;;;;;;;;;;4952000;28;20306;-63
2022/01/22 02:02:09;;;;;;;7.10;5.00;;;;;;;;;;4952651;28;20221;-62
2022/01/22 02:04:37;;;;;;;6.43;5.03;;;;;;;;;;4952043;28;20676;-62
2022/01/22 02:07:05;;;;;;;10.83;6.17;;;;;;;;;;4950278;28;20203;-64
2022/01/22 02:09:33;;;;;;;10.07;5.80;;;;;;;;;;4945571;28;20223;-64
2022/01/22 02:12:08;;;;;;;6.80;4.83;;;;;;;;;;4945168;28;20226;-62
2022/01/22 02:25:31;;;;;;;9.83;4.83;;;;;;;;;;4948666;28;20717;-61
2022/01/22 02:28:01;;;;;;;7.53;5.77;;;;;;;;;;4950510;28;20207;-63
2022/01/22 02:30:31;;;;;;;7.80;5.70;;;;;;;;;;4953519;28;21525;-62
2022/01/22 02:38:18;;;;;;;8.20;5.67;;;;;;;;;;4950071;28;20303;-62
2022/01/22 02:40:48;;;;;;;8.67;7.53;;;;;;;;;;4951117;28;20230;-62
2022/01/22 02:43:16;;;;;;;9.73;6.73;;;;;;;;;;4949062;28;20216;-62
2022/01/22 02:45:46;;;;;;;7.93;5.83;;;;;;;;;;4955434;28;20249;-63
2022/01/22 02:48:13;;;;;;;8.90;5.07;;;;;;;;;;4956126;28;20209;-66
2022/01/22 02:50:41;;;;;;;6.77;4.87;;;;;;;;;;4939721;28;20301;-62
2022/01/22 02:53:12;;;;;;;7.73;4.47;;;;;;;;;;4948029;28;20219;-62
2022/01/22 02:55:40;;;;;;;8.03;4.03;;;;;;;;;;4943435;28;20205;-63
2022/01/22 02:58:08;;;;;;;6.70;5.07;;;;;;;;;;4955821;28;20230;-62
2022/01/22 03:00:36;;;;;;;7.17;4.93;;;;;;;;;;4950118;28;20242;-63
2022/01/22 03:03:03;;;;;;;7.97;5.10;;;;;;;;;;4943585;28;20219;-64
2022/01/22 03:05:32;;;;;;;12.07;6.30;;;;;;;;;;4953106;28;24531;-62
2022/01/22 03:08:04;;;;;;;6.77;5.37;;;;;;;;;;4949074;28;20210;-63
2022/01/22 03:10:32;;;;;;;7.57;6.80;;;;;;;;;;4944294;28;20243;-61
2022/01/22 03:15:36;;;;;;;10.83;7.27;;;;;;;;;;4948128;28;20378;-64
2022/01/22 03:18:16;;;;;;;9.27;6.27;;;;;;;;;;4947710;28;20221;-64
2022/01/22 03:29:02;;;;;;;7.27;4.47;;;;;;;;;;4946012;28;20554;-64
2022/01/22 03:31:29;;;;;;;7.20;5.13;;;;;;;;;;4950202;28;20224;-61
2022/01/22 03:33:57;;;;;;;7.13;4.53;;;;;;;;;;4946283;28;20212;-62
2022/01/22 03:36:29;;;;;;;5.83;4.57;;;;;;;;;;4946418;28;20223;-62
2022/01/22 03:38:56;;;;;;;5.93;4.33;;;;;;;;;;4942685;28;20220;-62
2022/01/22 03:41:24;;;;;;;5.77;4.50;;;;;;;;;;4940609;28;20231;-63
2022/01/22 03:43:52;;;;;;;7.67;4.60;;;;;;;;;;4940979;28;21323;-64
2022/01/22 03:46:20;;;;;;;6.93;4.40;;;;;;;;;;4946368;28;20298;-63
2022/01/22 03:48:47;;;;;;;8.07;4.50;;;;;;;;;;4947665;28;20255;-62
2022/01/22 03:51:15;;;;;;;6.13;5.43;;;;;;;;;;4946814;28;20270;-62
2022/01/22 03:53:43;;;;;;;6.47;4.60;;;;;;;;;;4947823;28;20213;-63
2022/01/22 03:56:12;;;;;;;9.30;4.57;;;;;;;;;;4960417;28;20228;-64
2022/01/22 03:58:41;;;;;;;8.17;5.10;;;;;;;;;;4950094;28;20222;-61
2022/01/22 04:03:59;;;;;;;12.53;5.93;;;;;;;;;;4950622;28;20216;-63
2022/01/22 04:09:06;;;;;;;11.23;6.40;;;;;;;;;;4952274;28;20226;-62
2022/01/22 04:11:42;;;;;;;10.17;6.07;;;;;;;;;;4942695;28;20220;-63
2022/01/22 04:14:22;;;;;;;7.67;6.13;;;;;;;;;;4944808;28;20214;-64
2022/01/22 04:25:11;;;;;;;12.83;6.53;;;;;;;;;;4945669;28;20205;-62
2022/01/22 04:27:39;;;;;;;9.70;7.07;;;;;;;;;;4936089;28;20220;-62
2022/01/22 04:30:06;;;;;;;9.50;7.03;;;;;;;;;;4944891;28;20230;-63
2022/01/22 04:32:34;;;;;;;11.03;7.30;;;;;;;;;;4947835;28;20210;-63
2022/01/22 04:35:01;;;;;;;9.80;6.70;;;;;;;;;;4947736;28;20203;-62
2022/01/22 04:37:29;;;;;;;13.60;8.00;;;;;;;;;;4944604;28;20706;-64
2022/01/22 04:39:56;;;;;;;14.63;8.13;;;;;;;;;;4945249;28;20339;-61
2022/01/22 04:42:26;;;;;;;12.77;8.30;;;;;;;;;;4948420;28;21669;-64
2022/01/22 04:54:58;;;;;;;11.13;8.33;;;;;;;;;;4949503;28;20210;-63
2022/01/22 04:55:31;;;;;;;17.03;8.70;;;;;;;;;;4941619;28;20217;-62
2022/01/22 04:58:03;;;;;;;14.27;8.97;;;;;;;;;;4942796;28;20218;-61
2022/01/22 05:00:32;;;;;;;18.10;9.57;;;;;;;;;;4946290;28;20234;-63
2022/01/22 05:03:00;;;;;;;15.90;9.97;;;;;;;;;;4954489;28;20225;-64
2022/01/22 05:05:31;;;;;;;19.10;9.97;;;;;;;;;;4948785;28;20337;-62
2022/01/22 05:07:59;;;;;;;16.63;9.60;;;;;;;;;;4952469;28;20708;-63
2022/01/22 05:10:26;;;;;;;21.17;12.57;;;;;;;;;;4945623;28;20263;-64
2022/01/22 05:12:54;;;;;;;23.40;12.20;;;;;;;;;;4949971;28;20208;-64
2022/01/22 05:15:21;;;;;;;19.93;12.17;;;;;;;;;;4942617;28;20213;-63
2022/01/22 05:17:49;;;;;;;17.43;11.37;;;;;;;;;;4943132;28;20213;-63
2022/01/22 05:20:28;;;;;;;24.03;14.50;;;;;;;;;;4950206;28;21064;-62
2022/01/22 05:23:07;;;;;;;22.57;12.57;;;;;;;;;;4946991;28;20573;-64
2022/01/22 05:25:46;;;;;;;19.07;11.83;;;;;;;;;;4951468;28;20292;-62
2022/01/22 05:39:09;;;;;;;15.33;9.90;;;;;;;;;;4946899;28;20271;-64
2022/01/22 05:41:39;;;;;;;15.53;9.43;;;;;;;;;;4946045;28;20615;-62
2022/01/22 05:44:07;;;;;;;16.33;9.47;;;;;;;;;;4950403;28;20207;-64
2022/01/22 05:46:34;;;;;;;15.60;9.47;;;;;;;;;;4946828;28;20207;-63
2022/01/22 05:49:05;;;;;;;15.27;9.20;;;;;;;;;;4951866;28;20588;-63
2022/01/22 05:51:34;;;;;;;17.67;10.43;;;;;;;;;;4947259;28;20209;-63
2022/01/22 05:59:36;;;;;;;20.17;13.93;;;;;;;;;;4951201;28;20238;-62
2022/01/22 06:02:07;;;;;;;21.00;11.50;;;;;;;;;;4947609;28;20231;-62
2022/01/22 06:04:35;;;;;;;20.13;12.17;;;;;;;;;;4945160;28;20568;-62
2022/01/22 06:07:03;;;;;;;25.60;13.20;;;;;;;;;;4945059;28;20214;-62
2022/01/22 06:09:32;;;;;;;18.13;10.83;;;;;;;;;;4950433;28;20226;-63
2022/01/22 06:14:33;;;;;;;17.90;11.13;;;;;;;;;;4948472;28;20227;-63
2022/01/22 06:17:03;;;;;;;16.00;9.43;;;;;;;;;;4945621;28;20225;-62
2022/01/22 06:19:30;;;;;;;15.23;9.27;;;;;;;;;;4948013;28;20228;-64
2022/01/22 06:21:59;;;;;;;18.17;10.57;;;;;;;;;;4953237;28;20227;-62
2022/01/22 06:24:26;;;;;;;17.20;9.23;;;;;;;;;;4947095;28;20222;-63
2022/01/22 06:26:58;;;;;;;20.27;12.27;;;;;;;;;;4944561;28;20200;-62
2022/01/22 06:29:26;;;;;;;17.83;9.97;;;;;;;;;;4949153;28;20230;-62
2022/01/22 06:31:53;;;;;;;17.10;9.60;;;;;;;;;;4948416;28;20216;-62
2022/01/22 06:34:23;;;;;;;17.37;11.17;;;;;;;;;;4948574;28;23408;-62
2022/01/22 06:36:50;;;;;;;22.70;10.77;;;;;;;;;;4941794;28;20643;-64
2022/01/22 06:39:18;;;;;;;17.77;11.17;;;;;;;;;;4942846;28;20235;-65
2022/01/22 06:41:46;;;;;;;18.57;10.50;;;;;;;;;;4942668;28;20741;-64
2022/01/22 06:44:17;;;;;;;23.60;11.13;;;;;;;;;;4948081;28;20231;-63
2022/01/22 06:46:47;;;;;;;20.80;11.73;;;;;;;;;;4944615;28;20334;-64
2022/01/22 06:49:14;;;;;;;22.93;10.50;;;;;;;;;;4948426;28;20224;-64
2022/01/22 06:51:42;;;;;;;21.27;11.03;;;;;;;;;;4942572;28;20223;-64
2022/01/22 06:54:11;;;;;;;20.90;11.03;;;;;;;;;;4942727;28;20241;-63
2022/01/22 06:56:40;;;;;;;19.20;9.90;;;;;;;;;;4945570;28;20223;-62
2022/01/22 06:59:10;;;;;;;15.30;8.97;;;;;;;;;;4944383;28;20216;-63
2022/01/22 07:01:37;;;;;;;18.53;10.40;;;;;;;;;;4945459;28;20236;-62
2022/01/22 07:04:05;;;;;;;17.83;10.40;;;;;;;;;;4941918;28;20210;-62
2022/01/22 07:06:34;;;;;;;19.60;10.03;;;;;;;;;;4942108;28;20207;-64
2022/01/22 07:09:03;;;;;;;16.07;10.20;;;;;;;;;;4953144;28;20207;-63
2022/01/22 07:11:31;;;;;;;15.93;9.40;;;;;;;;;;4951366;28;20217;-63
2022/01/22 07:13:58;;;;;;;20.13;10.60;;;;;;;;;;4951370;28;20215;-64
2022/01/22 07:16:28;;;;;;;18.63;10.53;;;;;;;;;;4945518;28;20298;-64
2022/01/22 07:19:01;;;;;;;19.40;10.73;;;;;;;;;;4942124;28;20223;-63
2022/01/22 07:21:32;;;;;;;18.63;11.73;;;;;;;;;;4960892;28;20725;-62
2022/01/22 07:26:30;;;;;;;20.60;12.13;;;;;;;;;;4949754;28;20208;-62
2022/01/22 07:28:57;;;;;;;22.17;11.97;;;;;;;;;;4950370;28;20202;-63
2022/01/22 07:31:26;;;;;;;22.53;12.30;;;;;;;;;;4941223;28;20219;-63
2022/01/22 07:33:54;;;;;;;18.80;11.10;;;;;;;;;;4951947;28;20210;-62
2022/01/22 07:36:22;;;;;;;27.77;12.77;;;;;;;;;;4958793;28;20225;-62
2022/01/22 07:38:49;;;;;;;19.10;11.63;;;;;;;;;;4956648;28;20216;-61
2022/01/22 07:41:18;;;;;;;20.30;11.67;;;;;;;;;;4953397;28;20273;-63
2022/01/22 07:43:47;;;;;;;26.53;12.93;;;;;;;;;;4953044;28;20213;-61
2022/01/22 07:46:16;;;;;;;23.70;12.77;;;;;;;;;;4950098;28;20298;-62
2022/01/22 07:48:45;;;;;;;25.83;12.03;;;;;;;;;;4951053;28;20235;-63
2022/01/22 07:51:12;;;;;;;22.27;12.00;;;;;;;;;;4950911;28;20308;-61
2022/01/22 07:53:40;;;;;;;22.50;11.50;;;;;;;;;;4953451;28;20266;-62
2022/01/22 07:56:07;;;;;;;22.80;12.77;;;;;;;;;;4946184;28;20217;-62
2022/01/22 07:58:35;;;;;;;25.97;12.70;;;;;;;;;;4951517;28;20692;-63
2022/01/22 08:01:02;;;;;;;20.67;11.90;;;;;;;;;;4949778;28;20227;-62
2022/01/22 08:03:30;;;;;;;25.43;13.00;;;;;;;;;;4948729;28;20211;-63
2022/01/22 08:05:57;;;;;;;22.87;12.57;;;;;;;;;;4939019;28;20346;-61
2022/01/22 08:08:27;;;;;;;24.23;13.43;;;;;;;;;;4945045;28;20216;-63
2022/01/22 08:11:00;;;;;;;28.53;15.30;;;;;;;;;;4949695;28;20230;-63
2022/01/22 08:13:30;;;;;;;25.80;13.37;;;;;;;;;;4950241;28;20278;-63
2022/01/22 08:16:00;;;;;;;20.10;12.70;;;;;;;;;;4957779;28;20212;-62
2022/01/22 08:18:29;;;;;;;18.90;11.90;;;;;;;;;;4950425;28;20207;-63
2022/01/22 08:20:56;;;;;;;21.33;12.30;;;;;;;;;;4949505;28;20230;-62
2022/01/22 08:23:24;;;;;;;19.33;11.10;;;;;;;;;;4947712;28;20240;-63
2022/01/22 08:25:51;;;;;;;21.00;11.90;;;;;;;;;;4949595;28;20204;-61
2022/01/22 08:36:41;;;;;;;27.73;13.60;;;;;;;;;;4942099;28;21305;-63
2022/01/22 08:39:09;;;;;;;23.30;15.43;;;;;;;;;;4950352;28;20701;-63
2022/01/22 08:41:36;;;;;;;25.83;15.20;;;;;;;;;;4949270;28;20231;-62
2022/01/22 08:44:05;;;;;;;23.33;15.53;;;;;;;;;;4946943;28;20216;-63
2022/01/22 08:46:34;;;;;;;21.07;13.93;;;;;;;;;;4948502;28;20303;-62
2022/01/22 08:49:04;;;;;;;22.53;15.37;;;;;;;;;;4946945;28;20236;-61
2022/01/22 08:51:38;;;;;;;19.33;12.10;;;;;;;;;;4943162;28;20582;-63
2022/01/22 08:54:06;;;;;;;20.53;11.53;;;;;;;;;;4951888;28;20616;-62
2022/01/22 08:56:34;;;;;;;19.50;11.50;;;;;;;;;;4928628;28;20291;-62
2022/01/22 08:59:02;;;;;;;16.70;11.00;;;;;;;;;;4941791;28;20213;-63
2022/01/22 09:01:30;;;;;;;16.33;10.50;;;;;;;;;;4927973;28;20216;-62
2022/01/22 09:03:57;;;;;;;17.03;10.93;;;;;;;;;;4947941;28;20219;-63
2022/01/22 09:06:27;;;;;;;15.63;10.73;;;;;;;;;;4948922;28;20216;-63
2022/01/22 09:09:00;;;;;;;16.00;9.83;;;;;;;;;;4944783;28;20702;-63
2022/01/22 09:11:30;;;;;;;15.33;11.13;;;;;;;;;;4941815;28;20291;-63
2022/01/22 09:13:59;;;;;;;29.13;18.87;;;;;;;;;;4949266;28;20213;-64
2022/01/22 09:16:27;;;;;;;21.60;12.37;;;;;;;;;;4945897;28;21576;-61
2022/01/22 09:18:54;;;;;;;20.67;11.93;;;;;;;;;;4950433;28;20344;-64
2022/01/22 09:21:22;;;;;;;24.13;12.97;;;;;;;;;;4937910;28;20213;-62
2022/01/22 09:23:50;;;;;;;18.37;13.10;;;;;;;;;;4935715;28;20220;-64
2022/01/22 09:26:19;;;;;;;21.03;12.07;;;;;;;;;;4943604;28;20272;-62
2022/01/22 09:28:47;;;;;;;17.90;11.30;;;;;;;;;;4940789;28;21054;-63
2022/01/22 09:31:15;;;;;;;19.77;10.33;;;;;;;;;;4949139;28;20579;-65
2022/01/22 09:33:44;;;;;;;20.50;11.10;;;;;;;;;;4936891;28;20702;-62
2022/01/22 09:36:13;;;;;;;18.17;10.70;;;;;;;;;;4938197;28;20212;-63
2022/01/22 09:38:41;;;;;;;15.87;10.30;;;;;;;;;;4933687;28;20222;-62
2022/01/22 09:41:09;;;;;;;17.60;9.90;;;;;;;;;;4943721;28;20248;-63
2022/01/22 09:43:36;;;;;;;14.53;9.13;;;;;;;;;;4946311;28;20236;-64
2022/01/22 09:46:05;;;;;;;17.00;10.30;;;;;;;;;;4929690;28;20205;-63
2022/01/22 09:48:34;;;;;;;16.60;10.97;;;;;;;;;;4934584;28;20216;-64
2022/01/22 09:51:01;;;;;;;15.40;10.80;;;;;;;;;;4937940;28;20310;-62
2022/01/22 09:53:31;;;;;;;22.67;14.43;;;;;;;;;;4948330;28;20217;-63
2022/01/22 09:55:58;;;;;;;19.57;12.37;;;;;;;;;;4963297;28;20268;-64
2022/01/22 09:58:25;;;;;;;15.80;10.67;;;;;;;;;;4959396;28;20205;-62
2022/01/22 10:00:53;;;;;;;19.57;12.47;;;;;;;;;;4959614;28;20363;-62
2022/01/22 10:03:21;;;;;;;18.53;12.63;;;;;;;;;;4962669;28;20236;-64
2022/01/22 10:05:51;;;;;;;21.00;12.70;;;;;;;;;;4945063;28;20562;-62
2022/01/22 10:08:24;;;;;;;21.10;12.70;;;;;;;;;;4956596;28;20200;-63
2022/01/22 10:10:52;;;;;;;19.17;10.70;;;;;;;;;;4954668;28;21236;-63
2022/01/22 10:13:38;;;;;;;15.47;11.20;;;;;;;;;;4956755;28;20209;-61
2022/01/22 10:16:19;;;;;;;19.20;10.67;;;;;;;;;;4968940;28;20237;-62
2022/01/22 10:18:48;;;;;;;16.73;11.00;;;;;;;;;;4961577;28;20213;-63
2022/01/22 10:21:18;;;;;;;18.57;11.53;;;;;;;;;;4966640;28;20232;-62
2022/01/22 10:23:48;;;;;;;18.43;11.87;;;;;;;;;;4966679;28;20930;-63
2022/01/22 10:26:19;;;;;;;18.60;12.30;;;;;;;;;;4969201;28;20579;-62
2022/01/22 10:28:50;;;;;;;18.63;12.37;;;;;;;;;;4970558;28;20208;-63
2022/01/22 10:31:21;;;;;;;16.47;10.60;;;;;;;;;;4967622;28;20232;-64
2022/01/22 10:34:05;;;;;;;16.10;11.10;;;;;;;;;;4963011;28;20619;-61
2022/01/22 10:36:33;;;;;;;19.13;12.03;;;;;;;;;;4962967;28;20217;-62
2022/01/22 10:39:00;;;;;;;16.23;10.60;;;;;;;;;;4959462;28;20220;-63
2022/01/22 10:41:37;;;;;;;31.40;20.80;;;;;;;;;;4961880;28;20202;-62
2022/01/22 10:44:07;;;;;;;13.73;9.70;;;;;;;;;;4958845;28;20235;-62
2022/01/22 10:47:02;;;;;;;14.33;10.27;;;;;;;;;;4956531;28;20309;-63
2022/01/22 10:49:31;;;;;;;14.27;10.53;;;;;;;;;;4963614;28;20224;-62
2022/01/22 10:52:00;;;;;;;18.50;10.77;;;;;;;;;;4962359;28;20205;-62
2022/01/22 10:54:28;;;;;;;14.30;10.33;;;;;;;;;;4966902;28;20210;-62
2022/01/22 10:57:09;;;;;;;14.13;10.60;;;;;;;;;;4973564;28;20198;-61
2022/01/22 10:59:36;;;;;;;15.27;10.43;;;;;;;;;;4977170;28;20224;-62
2022/01/22 11:02:06;;;;;;;15.73;11.53;;;;;;;;;;4967458;28;20590;-63
2022/01/22 11:04:37;;;;;;;17.90;10.83;;;;;;;;;;4968999;28;20864;-64
2022/01/22 11:07:08;;;;;;;17.23;10.80;;;;;;;;;;4965204;28;20201;-61
2022/01/22 11:09:50;;;;;;;13.47;10.80;;;;;;;;;;4962334;28;20235;-63
2022/01/22 11:12:20;;;;;;;17.97;11.43;;;;;;;;;;4962805;28;20610;-63
2022/01/22 11:14:48;;;;;;;18.37;11.07;;;;;;;;;;4959821;28;20209;-64
2022/01/22 11:17:15;;;;;;;13.17;10.10;;;;;;;;;;4964624;28;20212;-63
2022/01/22 11:19:46;;;;;;;17.30;11.10;;;;;;;;;;4963338;28;20272;-62
2022/01/22 11:22:16;;;;;;;18.10;11.83;;;;;;;;;;4959629;28;20217;-63
2022/01/22 11:24:44;;;;;;;18.67;10.80;;;;;;;;;;4954754;28;20205;-63
2022/01/22 11:27:13;;;;;;;17.27;11.37;;;;;;;;;;4958626;28;20234;-63
2022/01/22 11:29:50;;;;;;;14.03;9.57;;;;;;;;;;4955009;28;20303;-61
2022/01/22 11:32:19;;;;;;;12.97;9.10;;;;;;;;;;4948665;28;21240;-61
2022/01/22 11:34:47;;;;;;;10.63;8.53;;;;;;;;;;4956373;28;20215;-62
2022/01/22 11:37:24;;;;;;;13.33;9.37;;;;;;;;;;4961889;28;20256;-63
2022/01/22 11:40:10;;;;;;;15.40;10.90;;;;;;;;;;4961419;28;20251;-63
2022/01/22 11:43:03;;;;;;;12.30;9.90;;;;;;;;;;4960220;28;20228;-64
2022/01/22 11:45:50;;;;;;;11.23;8.93;;;;;;;;;;4953842;28;20204;-63
2022/01/22 11:48:17;;;;;;;14.93;9.47;;;;;;;;;;4947736;28;23113;-63
2022/01/22 11:50:49;;;;;;;12.70;8.97;;;;;;;;;;4956484;28;20240;-64
2022/01/22 11:53:37;;;;;;;14.03;11.00;;;;;;;;;;4949192;28;20223;-64
2022/01/22 11:56:11;;;;;;;15.23;10.10;;;;;;;;;;4944989;28;20217;-63
2022/01/22 11:58:56;;;;;;;13.23;10.20;;;;;;;;;;4946236;28;20275;-63
2022/01/22 12:01:54;;;;;;;16.70;12.07;;;;;;;;;;4941801;28;20803;-64
2022/01/22 12:04:26;;;;;;;13.77;9.93;;;;;;;;;;4938338;28;22005;-63
2022/01/22 12:07:03;;;;;;;12.00;9.20;;;;;;;;;;4953888;28;20220;-64
2022/01/22 12:09:33;;;;;;;11.27;9.23;;;;;;;;;;4952283;28;20224;-63
2022/01/22 12:15:31;;;;;;;12.17;9.63;;;;;;;;;;4956303;28;20208;-62
2022/01/22 12:18:07;;;;;;;13.57;10.80;;;;;;;;;;4946003;28;20223;-64
2022/01/22 12:23:03;;;;;;;15.60;11.07;;;;;;;;;;4950528;28;20287;-65
2022/01/22 12:25:31;;;;;;;15.10;11.27;;;;;;;;;;4943827;28;20232;-64
2022/01/22 12:28:01;;;;;;;19.57;14.97;;;;;;;;;;4957224;28;20205;-61
2022/01/22 12:30:34;;;;;;;14.13;12.53;;;;;;;;;;4963495;28;20244;-64
2022/01/22 12:33:02;;;;;;;14.83;11.20;;;;;;;;;;4960252;28;20217;-63
2022/01/22 12:35:34;;;;;;;12.83;10.37;;;;;;;;;;4967535;28;20215;-64
2022/01/22 12:38:20;;;;;;;16.10;13.60;;;;;;;;;;4968310;28;20804;-62
2022/01/22 12:40:56;;;;;;;14.87;12.07;;;;;;;;;;4962855;28;20229;-62
2022/01/22 12:43:30;;;;;;;17.93;14.00;;;;;;;;;;4975828;28;20256;-62
2022/01/22 12:46:02;;;;;;;15.23;10.73;;;;;;;;;;4980876;28;20235;-62
2022/01/22 12:48:35;;;;;;;14.60;11.00;;;;;;;;;;4970960;28;20231;-62
2022/01/22 12:51:10;;;;;;;12.80;10.07;;;;;;;;;;4960774;28;20225;-63
2022/01/22 12:53:41;;;;;;;15.47;10.37;;;;;;;;;;4980334;28;20270;-62
2022/01/22 12:56:47;;;;;;;11.33;9.33;;;;;;;;;;4965140;28;20205;-62
2022/01/22 12:59:08;;;;;;;11.17;8.63;;;;;;;;;;4969519;28;20485;-63
2022/01/22 13:01:38;;;;;;;14.50;8.97;;;;;;;;;;4966827;28;20235;-62
2022/01/22 13:04:08;;;;;;;12.60;9.00;;;;;;;;;;4960128;28;23288;-63
2022/01/22 13:06:49;;;;;;;15.60;9.57;;;;;;;;;;4965788;28;20216;-63
2022/01/22 13:09:17;;;;;;;16.43;9.40;;;;;;;;;;4964478;28;20244;-62
2022/01/22 13:11:47;;;;;;;12.07;10.50;;;;;;;;;;4973558;28;20207;-64
2022/01/22 13:14:30;;;;;;;25.87;19.10;;;;;;;;;;4969617;28;20213;-64
2022/01/22 13:17:03;;;;;;;19.27;13.80;;;;;;;;;;4959942;28;20292;-62
2022/01/22 13:19:38;;;;;;;21.73;16.60;;;;;;;;;;4965115;28;20229;-64
2022/01/22 13:22:06;;;;;;;14.07;10.23;;;;;;;;;;4964801;28;20243;-61
2022/01/22 13:24:37;;;;;;;16.60;11.10;;;;;;;;;;4962446;28;20236;-64
2022/01/22 13:29:40;;;;;;;16.37;11.80;;;;;;;;;;4964839;28;20327;-62
2022/01/22 13:49:02;;;;;;;18.23;12.43;;;;;;;;;;4961189;28;20208;-63
2022/01/22 13:51:30;;;;;;;17.93;12.33;;;;;;;;;;4967720;28;20220;-63
2022/01/22 13:54:00;;;;;;;15.40;10.87;;;;;;;;;;4964991;28;20206;-63
2022/01/22 13:56:49;;;;;;;17.87;12.50;;;;;;;;;;4960535;28;20674;-63
2022/01/22 13:59:18;;;;;;;17.07;10.43;;;;;;;;;;4949734;28;20566;-62
2022/01/22 14:04:24;;;;;;;14.90;10.90;;;;;;;;;;4948815;28;21344;-62
2022/01/22 14:06:54;;;;;;;14.43;10.30;;;;;;;;;;4953853;28;20253;-61
2022/01/22 14:09:22;;;;;;;16.50;10.60;;;;;;;;;;4947820;28;20237;-62
2022/01/22 14:12:05;;;;;;;18.00;11.17;;;;;;;;;;4952341;28;20297;-62
2022/01/22 14:14:51;;;;;;;19.10;14.53;;;;;;;;;;4953134;28;20205;-64
2022/01/22 14:17:26;;;;;;;24.47;16.40;;;;;;;;;;4943879;28;20232;-63
2022/01/22 14:20:00;;;;;;;22.27;11.70;;;;;;;;;;4943203;28;20804;-63
2022/01/22 14:22:28;;;;;;;24.93;18.10;;;;;;;;;;4942419;28;20208;-64
2022/01/22 14:25:14;;;;;;;23.93;15.97;;;;;;;;;;4947838;28;20236;-63
2022/01/22 14:27:42;;;;;;;20.10;12.70;;;;;;;;;;4955569;28;20602;-63
2022/01/22 14:30:09;;;;;;;22.87;13.47;;;;;;;;;;4956348;28;20237;-63
2022/01/22 14:32:54;;;;;;;18.87;11.70;;;;;;;;;;4934746;28;20351;-62
2022/01/22 14:35:25;;;;;;;18.73;13.03;;;;;;;;;;4945489;28;20217;-62
2022/01/22 14:37:55;;;;;;;18.53;12.47;;;;;;;;;;4961122;28;20269;-63
2022/01/22 14:45:57;;;;;;;23.23;13.50;;;;;;;;;;4947908;28;20212;-64
2022/01/22 14:48:25;;;;;;;20.20;13.30;;;;;;;;;;4951158;28;20220;-63
2022/01/22 14:50:55;;;;;;;24.13;14.10;;;;;;;;;;4943582;28;20227;-63
2022/01/22 14:53:22;;;;;;;24.13;14.07;;;;;;;;;;4948216;28;20232;-62
2022/01/22 14:55:51;;;;;;;27.63;15.03;;;;;;;;;;4945903;28;20238;-63
2022/01/22 14:58:19;;;;;;;21.77;13.90;;;;;;;;;;4954583;28;20209;-62
2022/01/22 15:00:50;;;;;;;24.50;14.50;;;;;;;;;;4944741;28;20228;-63
2022/01/22 15:03:18;;;;;;;26.77;14.97;;;;;;;;;;4931870;28;20298;-63
2022/01/22 15:05:46;;;;;;;32.17;14.30;;;;;;;;;;4939495;28;20889;-64
2022/01/22 15:08:17;;;;;;;29.57;14.90;;;;;;;;;;4950380;28;20272;-62
2022/01/22 15:10:47;;;;;;;28.63;16.57;;;;;;;;;;4947406;28;20721;-61
2022/01/22 15:13:15;;;;;;;48.20;27.00;;;;;;;;;;4949526;28;21975;-63
2022/01/22 15:15:47;;;;;;;26.53;16.97;;;;;;;;;;4954379;28;20208;-61
2022/01/22 15:18:38;;;;;;;26.83;17.13;;;;;;;;;;4950863;28;20703;-62
2022/01/22 15:21:05;;;;;;;30.40;16.13;;;;;;;;;;4952806;28;20236;-63
2022/01/22 15:23:33;;;;;;;28.33;15.93;;;;;;;;;;4953068;28;20247;-63
2022/01/22 15:26:00;;;;;;;32.63;17.67;;;;;;;;;;4952942;28;20219;-63
2022/01/22 15:28:44;;;;;;;27.73;16.37;;;;;;;;;;4955947;28;20210;-63
2022/01/22 15:31:34;;;;;;;29.20;16.73;;;;;;;;;;4954859;28;20307;-64
2022/01/22 15:37:03;;;;;;;34.63;16.50;;;;;;;;;;4951530;28;20276;-63
2022/01/22 15:39:30;;;;;;;30.50;16.10;;;;;;;;;;4941960;28;20325;-62
2022/01/22 15:41:58;;;;;;;32.47;17.77;;;;;;;;;;4951362;28;20213;-61
2022/01/22 15:44:45;;;;;;;32.07;16.70;;;;;;;;;;4956186;28;20228;-64
2022/01/22 15:47:13;;;;;;;26.20;15.47;;;;;;;;;;4951116;28;20683;-61
2022/01/22 15:49:44;;;;;;;28.77;16.00;;;;;;;;;;4951610;28;20625;-61
2022/01/22 15:52:12;;;;;;;28.87;15.97;;;;;;;;;;4956731;28;20209;-62
2022/01/22 15:54:41;;;;;;;32.13;17.10;;;;;;;;;;4949775;28;20213;-63
2022/01/22 15:57:09;;;;;;;27.60;15.47;;;;;;;;;;4956470;28;20214;-63
2022/01/22 15:59:37;;;;;;;24.70;15.70;;;;;;;;;;4946203;28;20265;-63
2022/01/22 16:02:06;;;;;;;31.10;16.10;;;;;;;;;;4945503;28;20894;-62
2022/01/22 16:04:37;;;;;;;26.73;16.13;;;;;;;;;;4956613;28;20745;-63
2022/01/22 16:09:36;;;;;;;23.43;15.60;;;;;;;;;;4961109;28;20739;-65
2022/01/22 16:12:21;;;;;;;26.07;15.33;;;;;;;;;;4953838;28;20671;-63
2022/01/22 16:14:48;;;;;;;25.87;15.10;;;;;;;;;;4946577;28;20259;-64
2022/01/22 16:17:16;;;;;;;27.93;16.60;;;;;;;;;;4948399;28;20299;-62
2022/01/22 16:19:44;;;;;;;27.13;17.43;;;;;;;;;;4943824;28;20237;-62
2022/01/22 16:22:11;;;;;;;45.87;28.77;;;;;;;;;;4947945;28;20221;-62
2022/01/22 16:24:41;;;;;;;69.77;35.43;;;;;;;;;;4946574;28;20236;-62
2022/01/22 16:27:08;;;;;;;99.23;49.60;;;;;;;;;;4947855;28;20565;-62
2022/01/22 16:29:36;;;;;;;46.47;25.83;;;;;;;;;;4942607;28;20232;-62
2022/01/22 16:32:09;;;;;;;26.10;17.53;;;;;;;;;;4945963;28;20209;-62
2022/01/22 16:34:37;;;;;;;23.63;15.33;;;;;;;;;;4942934;28;20686;-61
2022/01/22 16:37:05;;;;;;;23.17;14.77;;;;;;;;;;4941296;28;20316;-61
2022/01/22 16:39:32;;;;;;;25.70;15.20;;;;;;;;;;4945588;28;20336;-63
2022/01/22 16:42:05;;;;;;;22.37;15.20;;;;;;;;;;4953688;28;20210;-64
2022/01/22 16:44:50;;;;;;;20.17;14.43;;;;;;;;;;4955013;28;20223;-61
2022/01/22 16:55:23;;;;;;;23.90;13.50;;;;;;;;;;4951524;28;20703;-62
2022/01/22 16:57:58;;;;;;;26.10;14.27;;;;;;;;;;4949281;28;20857;-63
2022/01/22 17:00:34;;;;;;;24.07;14.63;;;;;;;;;;4956086;28;20232;-63
2022/01/22 17:03:11;;;;;;;26.13;15.87;;;;;;;;;;4947020;28;20233;-63
2022/01/22 17:05:42;;;;;;;25.77;15.40;;;;;;;;;;4947878;28;20257;-65
2022/01/22 17:08:27;;;;;;;25.60;15.60;;;;;;;;;;4941836;28;20209;-65
2022/01/22 17:11:20;;;;;;;26.10;14.37;;;;;;;;;;4967222;28;20221;-64
2022/01/22 17:16:32;;;;;;;30.80;16.80;;;;;;;;;;4943580;28;21060;-63